<?xml version='1.0' encoding='UTF-8'?>
<gpx xmlns="http://www.topografix.com/GPX/1/1" creator="www.balnam.be" version="1.1" xmlns:xsi="http://www.w3.org/2001/XMLSchema-instance" xsi:schemaLocation="http://www.topografix.com/GPX/1/1 http://www.topografix.com/GPX/1/1/gpx.xsd">
<trk>
<name>hbthl37</name>
<cmt>v</cmt>
<desc>Hollain Sentier n°37 Rue du Marais</desc>
<link href="https://chemins.be/hollain/sentier/37"/><trkseg>
<trkpt lat="50.538282" lon="3.428683"><time>2026-05-02T16:51:46Z</time></trkpt>
<trkpt lat="50.539502" lon="3.429207"><time>2026-05-02T17:01:46Z</time></trkpt>
<trkpt lat="50.540175" lon="3.429387"><time>2026-05-02T17:11:46Z</time></trkpt>
<trkpt lat="50.540562" lon="3.429764"><time>2026-05-02T17:21:46Z</time></trkpt>
</trkseg></trk>
<trk>
<name>hbthl37</name>
<cmt>q</cmt>
<desc>Hollain Sentier n°37 Rue du Marais</desc>
<link href="https://chemins.be/hollain/sentier/37"/><trkseg>
<trkpt lat="50.540562" lon="3.429764"><time>2026-05-02T17:21:46Z</time></trkpt>
<trkpt lat="50.540626" lon="3.429684"><time>2026-05-02T17:31:46Z</time></trkpt>
<trkpt lat="50.541148" lon="3.429024"><time>2026-05-02T17:41:46Z</time></trkpt>
<trkpt lat="50.541996" lon="3.428801"><time>2026-05-02T17:51:46Z</time></trkpt>
<trkpt lat="50.542422" lon="3.428749"><time>2026-05-02T18:01:46Z</time></trkpt>
<trkpt lat="50.542417" lon="3.428812"><time>2026-05-02T18:11:46Z</time></trkpt>
<trkpt lat="50.542582" lon="3.428903"><time>2026-05-02T18:21:46Z</time></trkpt>
<trkpt lat="50.542569" lon="3.429439"><time>2026-05-02T18:31:46Z</time></trkpt>
<trkpt lat="50.542778" lon="3.429404"><time>2026-05-02T18:41:46Z</time></trkpt>
<trkpt lat="50.542834" lon="3.429902"><time>2026-05-02T18:51:46Z</time></trkpt>
</trkseg></trk>
<trk>
<name>hbthl37</name>
<cmt>r</cmt>
<desc>Hollain Sentier n°37 Rue du Marais</desc>
<link href="https://chemins.be/hollain/sentier/37"/><trkseg>
<trkpt lat="50.542834" lon="3.429902"><time>2026-05-02T18:51:46Z</time></trkpt>
<trkpt lat="50.543230" lon="3.429861"><time>2026-05-02T19:01:46Z</time></trkpt>
</trkseg></trk>
<trk>
<name>hbthl37</name>
<cmt>q</cmt>
<desc>Hollain Sentier n°37 Rue du Marais</desc>
<link href="https://chemins.be/hollain/sentier/37"/><trkseg>
<trkpt lat="50.543230" lon="3.429861"><time>2026-05-02T19:01:46Z</time></trkpt>
<trkpt lat="50.543860" lon="3.430434"><time>2026-05-02T19:11:46Z</time></trkpt>
<trkpt lat="50.544843" lon="3.430214"><time>2026-05-02T19:21:46Z</time></trkpt>
<trkpt lat="50.544923" lon="3.430017"><time>2026-05-02T19:31:46Z</time></trkpt>
<trkpt lat="50.545066" lon="3.430169"><time>2026-05-02T19:41:46Z</time></trkpt>
<trkpt lat="50.545815" lon="3.430007"><time>2026-05-02T19:51:46Z</time></trkpt>
<trkpt lat="50.545920" lon="3.429907"><time>2026-05-02T20:01:46Z</time></trkpt>
<trkpt lat="50.546747" lon="3.429807"><time>2026-05-02T20:11:46Z</time></trkpt>
<trkpt lat="50.547020" lon="3.429850"><time>2026-05-02T20:21:46Z</time></trkpt>
<trkpt lat="50.547797" lon="3.429771"><time>2026-05-02T20:31:46Z</time></trkpt>
</trkseg>
</trk>
</gpx>